Time;durP1;ratioP1;P1;durP2;ratioP2;P2;SDS_P1;SDS_P2;PMS_P1;PMS_P2;Temp;Humidity;BMP_temperature;BMP_pressure;BME280_temperature;BME280_humidity;BME280_pressure;Samples;Min_cycle;Max_cycle;Signal;HPM_P1;HPM_P2
2021/09/01 00:01:05;;;;;;;7.28;4.80;;;;;;;9.87;100.00;101534.69;5031776;28;20061;-83
2021/09/01 00:03:32;;;;;;;7.00;5.25;;;;;;;9.90;100.00;101538.19;5015248;28;20115;-83
2021/09/01 00:05:59;;;;;;;8.45;5.65;;;;;;;9.93;100.00;101543.50;5001000;28;20049;-81
2021/09/01 00:08:25;;;;;;;7.80;5.20;;;;;;;9.92;100.00;101544.34;5001436;28;20048;-82
2021/09/01 00:10:52;;;;;;;7.70;5.57;;;;;;;9.84;100.00;101542.66;5017711;28;20110;-81
2021/09/01 00:13:19;;;;;;;8.23;5.95;;;;;;;9.87;100.00;101547.03;5017940;28;20090;-82
2021/09/01 00:15:45;;;;;;;7.22;5.47;;;;;;;9.86;100.00;101540.88;5023321;28;20045;-81
2021/09/01 00:18:13;;;;;;;6.68;5.22;;;;;;;9.84;100.00;101533.84;5016625;28;20045;-82
2021/09/01 00:20:39;;;;;;;6.53;5.20;;;;;;;9.82;100.00;101543.50;5033076;28;20036;-82
2021/09/01 00:23:06;;;;;;;7.57;4.65;;;;;;;9.85;100.00;101538.25;5015939;28;20040;-83
2021/09/01 00:25:33;;;;;;;6.82;5.22;;;;;;;9.90;100.00;101546.13;5006877;28;20048;-83
2021/09/01 00:28:00;;;;;;;9.15;5.38;;;;;;;9.81;100.00;101544.41;4990360;28;20508;-84
2021/09/01 00:30:26;;;;;;;6.53;5.00;;;;;;;9.81;100.00;101544.41;5008220;28;20055;-82
2021/09/01 00:32:53;;;;;;;7.70;5.18;;;;;;;9.80;100.00;101548.78;5006490;28;20064;-84
2021/09/01 00:35:20;;;;;;;6.85;4.82;;;;;;;9.78;100.00;101553.22;5016329;28;20040;-83
2021/09/01 00:37:46;;;;;;;8.30;5.38;;;;;;;9.73;100.00;101552.34;5016768;28;20041;-82
2021/09/01 00:40:13;;;;;;;7.72;5.68;;;;;;;9.82;100.00;101554.06;4999800;28;20603;-83
2021/09/01 00:42:40;;;;;;;7.35;5.57;;;;;;;9.80;100.00;101556.72;4995376;28;20071;-83
2021/09/01 00:45:07;;;;;;;7.15;5.22;;;;;;;9.87;100.00;101557.59;5003227;28;20048;-82
2021/09/01 00:47:36;;;;;;;9.63;6.00;;;;;;;9.80;100.00;101562.00;5015412;28;20037;-83
2021/09/01 00:50:08;;;;;;;8.45;5.53;;;;;;;9.81;100.00;101547.91;5029230;28;20132;-82
2021/09/01 00:52:35;;;;;;;7.72;5.00;;;;;;;9.90;100.00;101554.03;5035016;28;20049;-82
2021/09/01 00:55:02;;;;;;;7.25;5.53;;;;;;;9.93;100.00;101546.13;5014697;28;20404;-83
2021/09/01 00:57:30;;;;;;;7.90;4.88;;;;;;;9.97;100.00;101553.13;5031716;28;20052;-83
2021/09/01 00:59:57;;;;;;;8.90;6.00;;;;;;;9.99;100.00;101544.31;4999323;28;20425;-82
2021/09/01 01:02:24;;;;;;;7.65;5.18;;;;;;;10.01;100.00;101537.31;4999181;28;20474;-84
2021/09/01 01:04:51;;;;;;;7.13;5.20;;;;;;;10.03;100.00;101546.09;4999779;28;20462;-83
2021/09/01 01:07:18;;;;;;;8.38;5.65;;;;;;;10.01;100.00;101539.94;5014675;28;20044;-82
2021/09/01 01:09:48;;;;;;;8.73;5.15;;;;;;;10.03;100.00;101543.44;4998822;28;20048;-83
2021/09/01 01:12:21;;;;;;;7.05;5.35;;;;;;;10.07;100.00;101541.66;4995391;28;20045;-83
2021/09/01 01:14:51;;;;;;;7.90;5.93;;;;;;;10.05;100.00;101540.78;4994915;28;20048;-83
2021/09/01 01:17:19;;;;;;;8.10;5.55;;;;;;;10.11;100.00;101544.28;5014756;28;20051;-82
2021/09/01 01:19:48;;;;;;;6.13;5.13;;;;;;;10.16;100.00;101537.22;5015575;28;20075;-84
2021/09/01 01:22:20;;;;;;;7.60;5.55;;;;;;;10.23;100.00;101534.56;5007583;28;20063;-82
2021/09/01 01:24:58;;;;;;;7.97;5.78;;;;;;;10.26;100.00;101545.16;5012986;28;20045;-83
2021/09/01 01:27:34;;;;;;;7.57;5.47;;;;;;;10.26;100.00;101531.94;4996756;28;20049;-82
2021/09/01 01:30:11;;;;;;;9.00;5.85;;;;;;;10.30;100.00;101533.66;5031651;28;20073;-85
2021/09/01 01:32:39;;;;;;;6.95;5.28;;;;;;;10.30;100.00;101531.91;5014653;28;20053;-82
2021/09/01 01:35:07;;;;;;;7.55;6.03;;;;;;;10.33;100.00;101537.16;5014058;28;20052;-83
2021/09/01 01:37:34;;;;;;;11.20;6.25;;;;;;;10.39;100.00;101541.53;5030778;28;20048;-83
2021/09/01 01:40:01;;;;;;;7.50;5.40;;;;;;;10.40;100.00;101540.66;5014952;28;20041;-83
2021/09/01 01:42:27;;;;;;;9.82;7.10;;;;;;;10.42;100.00;101545.06;4996368;28;20045;-84
2021/09/01 01:44:54;;;;;;;8.65;6.32;;;;;;;10.51;100.00;101559.97;4995545;28;20053;-82
2021/09/01 01:47:21;;;;;;;8.60;5.88;;;;;;;10.49;100.00;101559.09;5021477;28;20044;-82
2021/09/01 01:49:47;;;;;;;7.78;5.35;;;;;;;10.45;100.00;101557.34;5022671;28;20056;-83
2021/09/01 01:52:14;;;;;;;9.13;5.43;;;;;;;10.45;100.00;101557.34;5015940;28;20036;-82
2021/09/01 01:54:41;;;;;;;7.97;5.68;;;;;;;10.45;100.00;101553.84;4996239;28;20048;-83
2021/09/01 01:57:08;;;;;;;9.10;4.95;;;;;;;10.44;100.00;101555.59;4994865;28;20052;-82
2021/09/01 01:59:34;;;;;;;6.72;4.78;;;;;;;10.37;100.00;101564.44;4993337;28;20103;-83
2021/09/01 02:02:01;;;;;;;6.53;4.95;;;;;;;10.31;100.00;101565.34;4992927;28;20058;-83
2021/09/01 02:04:28;;;;;;;6.47;5.00;;;;;;;10.30;100.00;101560.06;5011561;28;20493;-84
2021/09/01 02:06:55;;;;;;;8.00;4.75;;;;;;;10.27;100.00;101557.47;4994778;28;20059;-84
2021/09/01 02:09:21;;;;;;;6.45;4.97;;;;;;;10.22;100.00;101553.91;5027968;28;20095;-82
2021/09/01 02:11:48;;;;;;;6.38;4.65;;;;;;;10.25;100.00;101556.56;4996832;28;20046;-83
2021/09/01 02:14:15;;;;;;;7.93;5.68;;;;;;;10.24;100.00;101557.47;4998657;28;20048;-83
2021/09/01 02:16:41;;;;;;;7.63;4.82;;;;;;;10.24;100.00;101553.06;5013780;28;20417;-83
2021/09/01 02:19:09;;;;;;;7.95;4.90;;;;;;;10.16;100.00;101550.41;5011191;28;20700;-83
2021/09/01 02:21:37;;;;;;;8.38;4.85;;;;;;;10.16;100.00;101550.41;5030308;28;20051;-83
2021/09/01 02:24:05;;;;;;;7.22;5.03;;;;;;;10.11;100.00;101549.56;5027473;28;20122;-85
2021/09/01 02:26:32;;;;;;;7.40;5.13;;;;;;;10.04;100.00;101542.56;5031692;28;20041;-82
2021/09/01 02:28:59;;;;;;;6.68;4.72;;;;;;;10.05;100.00;101546.06;5013266;28;20049;-84
2021/09/01 02:31:26;;;;;;;6.60;5.05;;;;;;;10.08;100.00;101556.59;5011925;28;20046;-83
2021/09/01 02:33:52;;;;;;;7.70;5.68;;;;;;;10.04;100.00;101554.88;5012496;28;20117;-84
2021/09/01 02:36:19;;;;;;;8.23;5.53;;;;;;;10.09;100.00;101564.56;5014812;28;20079;-82
2021/09/01 02:38:46;;;;;;;10.55;5.45;;;;;;;10.04;100.00;101557.53;5014064;28;20422;-82
2021/09/01 02:41:13;;;;;;;6.90;4.93;;;;;;;10.07;100.00;101558.38;4985223;28;20076;-82
2021/09/01 02:43:40;;;;;;;8.43;5.20;;;;;;;9.99;100.00;101559.28;4997340;28;20037;-83
2021/09/01 02:46:06;;;;;;;8.00;4.75;;;;;;;10.00;100.00;101555.75;5004175;28;20739;-83
2021/09/01 02:48:33;;;;;;;7.68;5.38;;;;;;;9.98;100.00;101561.06;5009372;28;20040;-82
2021/09/01 02:51:00;;;;;;;10.50;5.55;;;;;;;9.95;100.00;101554.91;5013706;28;20053;-82
2021/09/01 02:53:27;;;;;;;6.88;4.97;;;;;;;9.92;100.00;101558.47;5013682;28;20041;-82
2021/09/01 02:55:53;;;;;;;7.75;5.28;;;;;;;9.87;100.00;101550.53;5014592;28;20579;-82
2021/09/01 02:58:20;;;;;;;7.55;5.63;;;;;;;9.87;100.00;101558.47;5013187;28;20033;-82
2021/09/01 03:00:46;;;;;;;7.22;5.30;;;;;;;9.83;100.00;101556.69;5012774;28;20119;-82
2021/09/01 03:03:13;;;;;;;7.88;5.28;;;;;;;9.81;100.00;101552.31;5012997;28;20047;-82
2021/09/01 03:05:40;;;;;;;7.43;5.15;;;;;;;9.80;100.00;101551.44;5013879;28;20041;-82
2021/09/01 03:08:08;;;;;;;6.55;4.88;;;;;;;9.80;100.00;101550.56;4996616;28;20049;-82
2021/09/01 03:10:35;;;;;;;7.43;5.18;;;;;;;9.82;100.00;101543.50;5014348;28;20041;-82
2021/09/01 03:13:02;;;;;;;9.45;6.25;;;;;;;9.89;100.00;101545.25;5000386;28;20414;-83
2021/09/01 03:15:29;;;;;;;8.50;5.57;;;;;;;9.90;100.00;101552.28;5018283;28;20509;-82
2021/09/01 03:17:56;;;;;;;11.57;6.15;;;;;;;9.99;100.00;101546.97;5017766;28;20056;-82
2021/09/01 03:20:22;;;;;;;10.32;6.20;;;;;;;9.96;100.00;101543.47;5033111;28;20036;-82
2021/09/01 03:22:49;;;;;;;10.18;6.22;;;;;;;9.90;100.00;101547.00;4997423;28;20076;-83
2021/09/01 03:25:16;;;;;;;9.07;6.00;;;;;;;9.88;100.00;101549.66;5016279;28;20050;-83
2021/09/01 03:27:43;;;;;;;7.20;5.78;;;;;;;9.82;100.00;101548.78;5017241;28;20053;-82
2021/09/01 03:30:10;;;;;;;11.45;5.97;;;;;;;9.84;100.00;101552.31;5001159;28;20059;-82
2021/09/01 03:32:37;;;;;;;7.95;5.30;;;;;;;9.81;100.00;101550.56;5017860;28;20048;-83
2021/09/01 03:35:04;;;;;;;10.48;5.40;;;;;;;9.82;100.00;101549.66;5001038;28;20056;-82
2021/09/01 03:37:31;;;;;;;8.20;6.28;;;;;;;9.83;100.00;101547.91;4998403;28;20049;-82
2021/09/01 03:39:59;;;;;;;8.85;5.50;;;;;;;9.82;100.00;101543.50;5015785;28;20045;-81
2021/09/01 03:42:25;;;;;;;7.55;5.00;;;;;;;9.80;100.00;101546.16;5013598;28;20056;-82
2021/09/01 03:44:52;;;;;;;9.60;5.47;;;;;;;9.83;100.00;101548.78;5001320;28;20041;-83
2021/09/01 03:47:19;;;;;;;7.10;5.82;;;;;;;9.76;100.00;101546.19;5016745;28;20055;-84
2021/09/01 03:49:45;;;;;;;10.70;5.43;;;;;;;9.80;100.00;101551.44;5001068;28;20037;-84
2021/09/01 03:52:13;;;;;;;6.40;4.82;;;;;;;9.78;100.00;101547.06;5000932;28;20463;-84
2021/09/01 03:54:40;;;;;;;36.42;6.45;;;;;;;9.83;100.00;101550.53;5000658;28;20098;-84
2021/09/01 03:57:06;;;;;;;7.75;5.20;;;;;;;9.72;100.00;101549.69;5016121;28;20106;-84
2021/09/01 03:59:33;;;;;;;7.95;5.55;;;;;;;9.74;100.00;101555.84;5010625;28;20041;-84
2021/09/01 04:02:03;;;;;;;8.07;5.63;;;;;;;9.71;100.00;101555.88;4996358;28;20083;-85
2021/09/01 04:04:31;;;;;;;8.23;5.03;;;;;;;9.67;100.00;101554.09;5017560;28;20052;-83
2021/09/01 04:06:57;;;;;;;9.57;5.55;;;;;;;9.62;100.00;101564.69;5015708;28;20041;-83
2021/09/01 04:09:24;;;;;;;10.82;5.78;;;;;;;9.66;100.00;101562.91;5031315;28;20033;-83
2021/09/01 04:11:50;;;;;;;8.68;5.57;;;;;;;9.66;100.00;101554.97;5015914;28;20041;-83
2021/09/01 04:14:17;;;;;;;7.63;5.63;;;;;;;9.65;100.00;101555.88;5033784;28;20068;-85
2021/09/01 04:16:44;;;;;;;8.95;5.57;;;;;;;9.65;100.00;101563.78;5000108;28;20041;-83
2021/09/01 04:19:10;;;;;;;6.50;5.13;;;;;;;9.62;100.00;101567.31;4999080;28;20033;-83
2021/09/01 04:21:37;;;;;;;9.43;5.40;;;;;;;9.63;100.00;101578.75;5033196;28;20044;-83
2021/09/01 04:24:04;;;;;;;8.32;5.03;;;;;;;9.65;100.00;101576.97;5024382;28;20041;-83
2021/09/01 04:26:30;;;;;;;9.02;5.90;;;;;;;9.65;100.00;101583.13;5016917;28;20053;-83
2021/09/01 04:28:57;;;;;;;7.45;5.00;;;;;;;9.71;100.00;101588.41;5015660;28;20045;-83
2021/09/01 04:31:24;;;;;;;6.45;5.00;;;;;;;9.72;100.00;101584.88;5000201;28;20041;-83
2021/09/01 04:33:51;;;;;;;9.10;5.35;;;;;;;9.78;100.00;101592.78;4998704;28;20052;-83
2021/09/01 04:36:18;;;;;;;8.85;5.55;;;;;;;9.86;100.00;101590.13;5020782;28;20045;-82
2021/09/01 04:38:45;;;;;;;11.38;7.05;;;;;;;9.80;100.00;101593.66;4996458;28;20045;-83
2021/09/01 04:41:11;;;;;;;6.22;4.65;;;;;;;9.93;100.00;101593.66;5032751;28;20045;-82
2021/09/01 04:43:38;;;;;;;8.35;5.53;;;;;;;9.97;100.00;101593.63;5015802;28;20045;-84
2021/09/01 04:46:05;;;;;;;7.38;5.20;;;;;;;10.00;100.00;101590.94;5016735;28;20413;-82
2021/09/01 04:48:32;;;;;;;9.73;5.30;;;;;;;10.11;100.00;101594.47;4999311;28;20045;-83
2021/09/01 04:50:58;;;;;;;7.53;6.15;;;;;;;10.11;100.00;101589.19;5002877;28;20048;-84
2021/09/01 04:53:25;;;;;;;8.95;6.10;;;;;;;10.13;100.00;101597.97;4999726;28;20114;-83
2021/09/01 04:55:52;;;;;;;9.40;5.25;;;;;;;10.16;100.00;101599.69;5033301;28;20045;-83
2021/09/01 04:58:18;;;;;;;6.57;4.85;;;;;;;10.14;100.00;101604.13;5016189;28;20044;-85
2021/09/01 05:00:45;;;;;;;8.75;5.25;;;;;;;10.15;100.00;101612.03;5032515;28;20040;-83
2021/09/01 05:03:12;;;;;;;7.03;5.35;;;;;;;10.18;100.00;101618.22;5025311;28;20076;-83
2021/09/01 05:05:39;;;;;;;7.28;5.15;;;;;;;10.23;100.00;101613.81;4999886;28;20041;-84
2021/09/01 05:08:05;;;;;;;8.38;4.60;;;;;;;10.33;100.00;101608.47;5013180;28;20557;-83
2021/09/01 05:10:32;;;;;;;7.50;5.20;;;;;;;10.40;100.00;101609.31;5000104;28;20068;-84
2021/09/01 05:12:59;;;;;;;7.53;5.35;;;;;;;10.35;100.00;101603.19;5014535;28;20057;-84
2021/09/01 05:15:26;;;;;;;6.50;4.95;;;;;;;10.39;100.00;101610.22;5013078;28;20576;-83
2021/09/01 05:17:52;;;;;;;8.57;5.63;;;;;;;10.34;100.00;101612.91;5012691;28;20041;-83
2021/09/01 05:20:19;;;;;;;6.60;5.10;;;;;;;10.36;100.00;101605.84;4999446;28;20048;-84
2021/09/01 05:22:48;;;;;;;7.28;4.90;;;;;;;10.44;100.00;101613.72;4999167;28;20045;-84
2021/09/01 05:25:16;;;;;;;10.05;5.68;;;;;;;10.41;100.00;101608.44;5000496;28;20040;-83
2021/09/01 05:27:48;;;;;;;5.85;4.70;;;;;;;10.48;100.00;101615.44;5014659;28;20044;-84
2021/09/01 05:30:16;;;;;;;8.13;5.28;;;;;;;10.49;100.00;101619.84;4999212;28;20106;-84
2021/09/01 05:32:47;;;;;;;7.53;5.30;;;;;;;10.61;100.00;101619.81;4991681;28;20041;-83
2021/09/01 05:35:13;;;;;;;9.02;5.22;;;;;;;10.68;100.00;101624.19;4999896;28;20449;-83
2021/09/01 05:37:41;;;;;;;8.13;5.00;;;;;;;10.67;100.00;101622.38;5004893;28;20040;-84
2021/09/01 05:40:10;;;;;;;6.90;5.13;;;;;;;10.75;100.00;101619.72;5023780;28;20485;-84
2021/09/01 05:42:37;;;;;;;8.00;5.72;;;;;;;10.84;100.00;101616.13;5030531;28;20124;-84
2021/09/01 05:45:05;;;;;;;7.95;5.20;;;;;;;10.92;100.00;101616.97;5014078;28;20064;-83
2021/09/01 05:47:32;;;;;;;8.82;5.10;;;;;;;11.05;100.00;101618.63;5011217;28;20486;-84
2021/09/01 05:49:59;;;;;;;10.10;5.72;;;;;;;11.16;100.00;101616.78;5026894;28;20526;-83
2021/09/01 05:52:29;;;;;;;7.97;5.18;;;;;;;11.18;100.00;101612.38;5014376;28;20048;-84
2021/09/01 05:54:59;;;;;;;8.52;5.18;;;;;;;11.23;100.00;101618.50;4999612;28;20767;-84
2021/09/01 05:57:35;;;;;;;8.10;5.10;;;;;;;11.36;100.00;101618.41;5014909;28;20052;-84
2021/09/01 06:00:13;;;;;;;7.97;5.60;;;;;;;11.36;100.00;101629.88;5097719;22;20040;-87
2021/09/01 06:02:52;;;;;;;8.18;5.47;;;;;;;11.48;100.00;101629.75;5013862;28;20060;-88
2021/09/01 06:05:21;;;;;;;6.63;4.90;;;;;;;11.59;100.00;101634.94;5017022;28;20135;-87
2021/09/01 06:07:53;;;;;;;7.72;5.50;;;;;;;11.71;100.00;101636.63;5020785;28;20048;-87
2021/09/01 06:10:29;;;;;;;6.88;4.93;;;;;;;11.75;100.00;101640.97;5025325;28;20029;-87
2021/09/01 06:12:58;;;;;;;7.45;4.80;;;;;;;11.80;100.00;101640.09;5003556;28;20049;-84
2021/09/01 06:15:25;;;;;;;10.20;6.13;;;;;;;11.85;100.00;101640.03;5030813;28;20033;-84
2021/09/01 06:17:51;;;;;;;7.07;5.25;;;;;;;12.00;100.00;101649.59;5021700;28;20033;-85
2021/09/01 06:20:18;;;;;;;8.55;5.95;;;;;;;12.23;100.00;101644.03;5029604;28;20072;-85
2021/09/01 06:22:45;;;;;;;9.52;5.93;;;;;;;12.44;100.00;101643.78;5033906;28;20055;-86
2021/09/01 06:25:12;;;;;;;8.77;6.20;;;;;;;12.59;100.00;101648.00;5010905;28;20054;-85
2021/09/01 06:27:39;;;;;;;9.20;5.90;;;;;;;12.72;100.00;101649.63;5027306;28;20040;-87
2021/09/01 06:30:06;;;;;;;8.45;6.00;;;;;;;12.82;100.00;101650.34;5034817;28;20040;-86
2021/09/01 06:32:35;;;;;;;7.60;5.55;;;;;;;12.91;100.00;101643.16;5017606;28;20044;-87
2021/09/01 06:35:04;;;;;;;8.32;6.70;;;;;;;13.07;100.00;101648.22;5035841;28;20089;-86
2021/09/01 06:37:39;;;;;;;6.40;4.97;;;;;;;13.16;100.00;101653.41;5014976;28;20033;-87
2021/09/01 06:40:08;;;;;;;9.43;5.70;;;;;;;13.17;100.00;101650.72;5017206;28;20087;-87
2021/09/01 06:42:41;;;;;;;6.53;5.32;;;;;;;13.33;100.00;101650.50;5019130;28;20048;-86
2021/09/01 06:45:14;;;;;;;9.57;6.22;;;;;;;13.43;100.00;101657.41;5033697;28;20044;-86
2021/09/01 06:47:46;;;;;;;10.13;5.70;;;;;;;13.59;100.00;101658.03;5047218;28;20121;-86
2021/09/01 06:50:22;;;;;;;7.90;5.57;;;;;;;13.61;100.00;101661.53;5021741;28;20403;-85
2021/09/01 06:52:50;;;;;;;8.20;5.95;;;;;;;13.64;100.00;101659.72;5021328;28;20483;-85
2021/09/01 06:55:18;;;;;;;7.25;5.35;;;;;;;13.72;100.00;101665.78;5035616;28;20075;-85
2021/09/01 06:57:45;;;;;;;7.72;5.50;;;;;;;13.88;100.00;101665.53;5035841;28;20040;-86
2021/09/01 07:00:15;;;;;;;8.25;6.03;;;;;;;13.92;100.00;101673.38;5021424;28;20047;-86
2021/09/01 07:02:42;;;;;;;8.18;5.80;;;;;;;13.90;100.00;101669.00;5017058;28;20049;-86
2021/09/01 07:05:11;;;;;;;10.23;6.57;;;;;;;13.93;100.00;101671.59;5031288;28;20143;-86
2021/09/01 07:07:43;;;;;;;10.25;5.43;;;;;;;14.09;100.00;101673.06;5038332;28;20067;-83
2021/09/01 07:10:12;;;;;;;9.85;5.90;;;;;;;14.10;100.00;101677.47;5019827;28;20040;-82
2021/09/01 07:12:40;;;;;;;7.55;5.75;;;;;;;14.12;100.00;101685.41;5033790;28;20051;-83
2021/09/01 07:15:08;;;;;;;9.88;6.55;;;;;;;14.12;100.00;101677.44;5034579;28;20049;-82
2021/09/01 07:17:42;;;;;;;8.25;5.65;;;;;;;14.35;100.00;101684.06;5017776;28;20041;-82
2021/09/01 07:20:09;;;;;;;11.82;6.22;;;;;;;14.40;100.00;101684.00;5033965;28;20033;-83
2021/09/01 07:22:36;;;;;;;10.77;6.30;;;;;;;14.42;100.00;101686.63;5017044;28;20489;-82
2021/09/01 07:25:05;;;;;;;9.68;6.15;;;;;;;14.60;100.00;101688.94;5036495;28;20150;-82
2021/09/01 07:27:33;;;;;;;11.30;6.82;;;;;;;14.67;100.00;101690.56;5026387;28;20049;-83
2021/09/01 07:30:00;;;;;;;11.27;6.03;;;;;;;14.69;100.00;101695.84;5013526;28;20115;-83
2021/09/01 07:32:27;;;;;;;13.10;7.05;;;;;;;14.74;100.00;101709.94;5036666;28;20040;-82
2021/09/01 07:34:53;;;;;;;9.95;5.93;;;;;;;14.78;100.00;101709.81;5021689;28;20059;-83
2021/09/01 07:37:21;;;;;;;10.05;5.75;;;;;;;14.81;100.00;101699.13;5053304;28;20051;-82
2021/09/01 07:39:48;;;;;;;9.77;6.50;;;;;;;14.99;100.00;101708.50;5018932;28;20443;-82
2021/09/01 07:42:15;;;;;;;11.75;6.70;;;;;;;15.02;100.00;101702.22;5013900;28;20694;-82
2021/09/01 07:44:42;;;;;;;8.70;5.78;;;;;;;15.15;100.00;101706.38;5049956;28;20409;-82
2021/09/01 07:47:09;;;;;;;7.38;5.57;;;;;;;15.16;100.00;101716.97;5014896;28;20045;-84
2021/09/01 07:49:35;;;;;;;11.02;6.18;;;;;;;15.34;100.00;101715.69;5035575;28;20048;-86
2021/09/01 07:52:02;;;;;;;10.32;5.68;;;;;;;15.53;100.00;101723.22;5020505;28;20048;-85
2021/09/01 07:54:29;;;;;;;8.45;5.50;;;;;;;15.74;100.00;101731.63;5035697;28;20041;-85
2021/09/01 07:56:56;;;;;;;7.10;5.47;;;;;;;15.67;100.00;101722.03;5021062;28;20548;-85
2021/09/01 07:59:23;;;;;;;10.95;6.13;;;;;;;15.76;100.00;101724.47;5036000;28;20048;-84
2021/09/01 08:01:49;;;;;;;8.10;5.32;;;;;;;15.93;100.00;101734.69;5033352;28;20073;-85
2021/09/01 08:04:16;;;;;;;6.32;4.82;;;;;;;16.00;100.00;101730.09;5010729;28;20044;-84
2021/09/01 08:06:43;;;;;;;11.05;5.57;;;;;;;16.19;100.00;101741.13;5016716;28;20048;-85
2021/09/01 08:09:10;;;;;;;7.82;5.20;;;;;;;16.10;100.00;101744.91;5017389;28;20124;-84
2021/09/01 08:11:42;;;;;;;6.93;5.00;;;;;;;16.14;100.00;101741.25;5027577;28;20048;-85
2021/09/01 08:14:08;;;;;;;8.48;4.75;;;;;;;16.13;100.00;101758.16;5014736;28;20129;-84
2021/09/01 08:16:35;;;;;;;7.68;5.55;;;;;;;16.11;98.36;101754.66;5036525;28;20047;-84
2021/09/01 08:19:02;;;;;;;7.45;5.43;;;;;;;16.03;98.38;101753.97;5018910;28;20401;-83
2021/09/01 08:21:29;;;;;;;7.63;5.03;;;;;;;16.04;100.00;101761.06;5017283;28;20037;-84
2021/09/01 08:23:55;;;;;;;5.85;5.10;;;;;;;16.06;100.00;101761.91;5034694;28;20044;-84
2021/09/01 08:26:22;;;;;;;7.88;4.95;;;;;;;16.26;100.00;101758.72;5045754;28;20408;-84
2021/09/01 08:28:50;;;;;;;7.65;5.35;;;;;;;16.17;100.00;101769.63;5033121;28;20501;-84
2021/09/01 08:31:17;;;;;;;7.10;4.60;;;;;;;16.07;100.00;101769.00;5051542;28;20103;-85
2021/09/01 08:33:44;;;;;;;8.50;5.57;;;;;;;16.10;100.00;101760.03;5012115;28;20049;-83
2021/09/01 08:36:11;;;;;;;6.97;5.00;;;;;;;16.30;100.00;101763.91;5020774;28;20057;-85
2021/09/01 08:38:37;;;;;;;9.90;5.75;;;;;;;16.33;100.00;101762.97;5008399;28;20405;-84
2021/09/01 08:41:04;;;;;;;7.05;5.65;;;;;;;16.24;98.91;101766.78;5020448;28;20036;-84
2021/09/01 08:43:33;;;;;;;6.82;4.85;;;;;;;16.27;98.23;101761.34;5015586;28;20045;-85
2021/09/01 08:46:02;;;;;;;7.07;5.13;;;;;;;16.51;98.23;101762.47;5015010;28;20416;-84
2021/09/01 08:48:30;;;;;;;7.45;5.43;;;;;;;16.67;100.00;101762.06;5019378;28;20075;-85
2021/09/01 08:50:57;;;;;;;9.73;6.03;;;;;;;16.63;94.28;101763.91;5007671;28;20513;-85
2021/09/01 08:53:23;;;;;;;7.88;5.13;;;;;;;16.64;96.48;101768.34;5017191;28;20051;-84
2021/09/01 08:55:50;;;;;;;6.60;4.80;;;;;;;16.69;96.94;101765.59;5009830;28;20036;-83
2021/09/01 08:58:17;;;;;;;6.18;5.40;;;;;;;16.66;95.33;101769.19;5051498;28;20509;-85
2021/09/01 09:00:44;;;;;;;7.05;4.68;;;;;;;16.69;97.92;101763.78;5046673;28;20035;-83
2021/09/01 09:03:11;;;;;;;7.68;5.70;;;;;;;16.64;96.51;101767.47;5012713;28;20044;-87
2021/09/01 09:05:40;;;;;;;7.72;4.78;;;;;;;16.83;97.49;101766.94;5038865;28;20041;-87
2021/09/01 09:08:11;;;;;;;8.70;5.78;;;;;;;16.98;92.24;101764.72;5042034;28;20063;-86
2021/09/01 09:10:40;;;;;;;6.65;5.00;;;;;;;16.94;94.44;101769.28;5030386;28;20037;-85
2021/09/01 09:13:10;;;;;;;7.25;5.03;;;;;;;16.77;95.05;101775.13;5024198;28;20432;-85
2021/09/01 09:15:39;;;;;;;9.20;5.70;;;;;;;16.84;95.18;101787.38;5036162;28;20139;-84
2021/09/01 09:18:27;;;;;;;8.20;5.53;;;;;;;16.88;90.91;101777.47;5018068;28;20485;-84
2021/09/01 09:21:15;;;;;;;7.85;5.65;;;;;;;16.94;92.53;101779.97;5032265;28;20045;-83
2021/09/01 09:24:11;;;;;;;7.65;5.85;;;;;;;16.98;91.77;101778.06;5021950;28;20068;-83
2021/09/01 09:26:56;;;;;;;8.18;5.75;;;;;;;16.92;88.31;101779.16;5034149;28;20044;-84
2021/09/01 09:29:29;;;;;;;7.95;5.45;;;;;;;17.02;90.73;101777.09;5024712;28;20387;-83
2021/09/01 09:32:05;;;;;;;8.27;6.13;;;;;;;17.04;92.49;101783.25;5016672;28;20045;-82
2021/09/01 09:34:41;;;;;;;8.10;5.50;;;;;;;17.09;90.49;101787.53;5033248;28;20072;-83
2021/09/01 09:37:17;;;;;;;7.45;5.80;;;;;;;17.25;92.69;101795.09;5027056;28;20076;-87
2021/09/01 09:39:56;;;;;;;6.15;5.05;;;;;;;17.32;93.39;101794.88;5016476;28;20079;-86
2021/09/01 09:42:34;;;;;;;8.50;4.95;;;;;;;17.39;92.84;101796.41;5050333;28;20044;-86
2021/09/01 09:45:20;;;;;;;6.65;5.10;;;;;;;17.53;90.86;101796.00;5030116;28;20151;-86
2021/09/01 09:47:48;;;;;;;6.65;5.07;;;;;;;17.86;91.72;101791.41;5015676;28;20049;-86
2021/09/01 09:50:16;;;;;;;7.53;5.05;;;;;;;18.06;89.79;101790.72;5029833;28;20654;-87
2021/09/01 09:52:44;;;;;;;7.05;4.75;;;;;;;18.20;89.57;101784.94;5017172;28;20047;-87
2021/09/01 09:55:12;;;;;;;8.25;5.07;;;;;;;18.32;86.61;101788.97;5048561;28;20146;-85
2021/09/01 09:57:53;;;;;;;9.20;5.68;;;;;;;18.41;83.89;101780.63;5034726;28;20037;-85
2021/09/01 10:00:22;;;;;;;7.63;5.15;;;;;;;18.44;80.83;101785.88;5015436;28;20041;-86
2021/09/01 10:02:49;;;;;;;6.28;4.70;;;;;;;18.76;81.16;101779.41;5028638;28;20401;-87
2021/09/01 10:05:20;;;;;;;7.22;4.97;;;;;;;19.09;80.08;101783.50;5024488;28;20090;-88
2021/09/01 10:07:47;;;;;;;7.07;5.13;;;;;;;19.18;77.83;101787.63;5027317;28;20036;-87
2021/09/01 10:10:15;;;;;;;7.10;5.07;;;;;;;18.90;76.86;101785.09;5006841;28;20393;-87
2021/09/01 10:12:44;;;;;;;6.72;5.10;;;;;;;18.87;76.32;101785.22;5022580;28;20044;-87
2021/09/01 10:15:19;;;;;;;6.40;4.90;;;;;;;18.99;78.76;101774.03;5001053;28;20047;-86
2021/09/01 10:17:48;;;;;;;5.95;4.38;;;;;;;18.82;77.11;101784.50;5026714;28;20047;-86
2021/09/01 10:20:22;;;;;;;5.97;4.82;;;;;;;18.42;77.78;101779.72;5030222;28;20052;-87
2021/09/01 10:23:04;;;;;;;5.53;4.30;;;;;;;18.48;81.37;101774.13;5028539;28;20047;-86
2021/09/01 10:25:51;;;;;;;5.70;4.22;;;;;;;18.82;74.62;101779.16;5048852;28;20049;-87
2021/09/01 10:28:34;;;;;;;6.93;3.92;;;;;;;19.06;72.43;101767.53;5024420;28;20072;-89
2021/09/01 10:31:16;;;;;;;6.85;4.68;;;;;;;19.23;78.46;101774.91;5035847;28;20044;-86
2021/09/01 10:33:55;;;;;;;9.02;5.38;;;;;;;18.97;76.15;101778.59;5059991;28;20059;-85
2021/09/01 10:36:24;;;;;;;7.85;5.43;;;;;;;18.89;78.36;101775.31;5017142;28;20040;-87
2021/09/01 10:38:52;;;;;;;8.38;4.60;;;;;;;18.80;79.22;101781.03;5014682;28;20052;-85
2021/09/01 10:41:32;;;;;;;6.32;4.93;;;;;;;18.85;78.91;101773.72;5034398;28;20437;-85
2021/09/01 10:44:18;;;;;;;5.80;4.50;;;;;;;19.07;77.50;101765.72;5031876;28;20093;-86
2021/09/01 10:46:55;;;;;;;6.22;4.72;;;;;;;19.20;72.91;101766.13;5013235;28;20048;-86
2021/09/01 10:49:54;;;;;;;5.53;4.30;;;;;;;19.43;75.61;101766.13;5018299;28;20037;-85
2021/09/01 10:52:22;;;;;;;7.07;4.63;;;;;;;19.31;72.12;101774.63;5044042;28;20041;-87
2021/09/01 10:54:49;;;;;;;5.93;4.63;;;;;;;19.49;75.33;101781.94;5033400;28;20035;-85
2021/09/01 10:57:28;;;;;;;5.75;4.68;;;;;;;19.76;72.46;101769.28;5015243;28;20033;-86
2021/09/01 10:59:58;;;;;;;5.13;4.45;;;;;;;20.11;71.94;101766.94;5011892;28;20044;-87
2021/09/01 11:02:25;;;;;;;6.47;4.57;;;;;;;20.06;70.00;101769.78;5003654;28;20049;-87
2021/09/01 11:04:54;;;;;;;5.85;4.47;;;;;;;20.13;71.00;101771.28;5001065;28;20127;-86
2021/09/01 11:07:26;;;;;;;6.72;4.20;;;;;;;20.05;66.25;101770.72;5014109;28;20044;-88
2021/09/01 11:10:05;;;;;;;5.60;3.93;;;;;;;20.13;68.51;101773.09;5008149;28;20148;-86
2021/09/01 11:12:34;;;;;;;5.30;4.07;;;;;;;20.33;67.28;101770.41;5028890;28;20052;-88
2021/09/01 11:15:02;;;;;;;4.95;4.32;;;;;;;20.50;68.52;101770.56;5034791;28;20131;-88
2021/09/01 11:17:29;;;;;;;7.13;4.80;;;;;;;20.53;69.30;101766.91;5040784;28;20049;-85
2021/09/01 11:19:59;;;;;;;6.03;4.75;;;;;;;20.27;66.78;101780.56;5008306;28;20444;-87
2021/09/01 11:22:29;;;;;;;6.80;4.70;;;;;;;20.37;67.59;101774.72;5013180;28;20052;-87
2021/09/01 11:25:03;;;;;;;6.20;4.22;;;;;;;19.98;67.95;101776.41;5016453;28;20063;-87
2021/09/01 11:27:33;;;;;;;4.70;4.07;;;;;;;19.89;71.17;101785.72;5015696;28;20040;-87